sensor_id;sensor_type;location;lat;lon;timestamp;pressure;altitude;pressure_sealevel;temperature;humidity
35226;BME280;21813;49.686;21.766;2022-11-20T00:01:48;98150.94;;;-4.55;100.00
35226;BME280;21813;49.686;21.766;2022-11-20T00:04:14;98146.81;;;-4.59;100.00
35226;BME280;21813;49.686;21.766;2022-11-20T00:06:40;98150.97;;;-4.57;100.00
35226;BME280;21813;49.686;21.766;2022-11-20T00:09:06;98148.50;;;-4.58;100.00
35226;BME280;21813;49.686;21.766;2022-11-20T00:11:32;98140.06;;;-4.60;100.00
35226;BME280;21813;49.686;21.766;2022-11-20T00:14:00;98156.06;;;-4.57;100.00
35226;BME280;21813;49.686;21.766;2022-11-20T00:16:31;98146.81;;;-4.59;100.00
35226;BME280;21813;49.686;21.766;2022-11-20T00:18:57;98144.22;;;-4.58;100.00
35226;BME280;21813;49.686;21.766;2022-11-20T00:21:25;98145.97;;;-4.60;100.00
35226;BME280;21813;49.686;21.766;2022-11-20T00:23:53;98138.31;;;-4.58;100.00
35226;BME280;21813;49.686;21.766;2022-11-20T00:26:22;98142.50;;;-4.57;100.00
35226;BME280;21813;49.686;21.766;2022-11-20T00:28:55;98145.06;;;-4.57;100.00
35226;BME280;21813;49.686;21.766;2022-11-20T00:31:23;98155.22;;;-4.57;100.00
35226;BME280;21813;49.686;21.766;2022-11-20T00:33:48;98147.69;;;-4.60;100.00
35226;BME280;21813;49.686;21.766;2022-11-20T00:36:21;98136.78;;;-4.65;100.00
35226;BME280;21813;49.686;21.766;2022-11-20T00:38:51;98146.88;;;-4.62;100.00
35226;BME280;21813;49.686;21.766;2022-11-20T00:41:20;98136.84;;;-4.68;100.00
35226;BME280;21813;49.686;21.766;2022-11-20T00:43:46;98138.53;;;-4.67;100.00
35226;BME280;21813;49.686;21.766;2022-11-20T00:46:17;98126.69;;;-4.68;100.00
35226;BME280;21813;49.686;21.766;2022-11-20T00:48:43;98132.63;;;-4.69;100.00
35226;BME280;21813;49.686;21.766;2022-11-20T00:51:13;98140.25;;;-4.69;100.00
35226;BME280;21813;49.686;21.766;2022-11-20T00:53:39;98126.81;;;-4.74;100.00
35226;BME280;21813;49.686;21.766;2022-11-20T00:56:09;98128.50;;;-4.73;100.00
35226;BME280;21813;49.686;21.766;2022-11-20T00:58:38;98137.81;;;-4.72;100.00
35226;BME280;21813;49.686;21.766;2022-11-20T01:01:08;98136.91;;;-4.71;100.00
35226;BME280;21813;49.686;21.766;2022-11-20T01:03:39;98136.09;;;-4.72;100.00
35226;BME280;21813;49.686;21.766;2022-11-20T01:06:15;98142.00;;;-4.71;100.00
35226;BME280;21813;49.686;21.766;2022-11-20T01:08:42;98134.38;;;-4.71;100.00
35226;BME280;21813;49.686;21.766;2022-11-20T01:11:15;98145.34;;;-4.69;100.00
35226;BME280;21813;49.686;21.766;2022-11-20T01:13:41;98137.69;;;-4.68;100.00
35226;BME280;21813;49.686;21.766;2022-11-20T01:16:13;98151.19;;;-4.66;100.00
35226;BME280;21813;49.686;21.766;2022-11-20T01:18:41;98147.69;;;-4.62;100.00
35226;BME280;21813;49.686;21.766;2022-11-20T01:21:14;98135.06;;;-4.63;100.00
35226;BME280;21813;49.686;21.766;2022-11-20T01:23:42;98131.59;;;-4.61;100.00
35226;BME280;21813;49.686;21.766;2022-11-20T01:26:11;98135.06;;;-4.63;100.00
35226;BME280;21813;49.686;21.766;2022-11-20T01:28:37;98140.91;;;-4.61;100.00
35226;BME280;21813;49.686;21.766;2022-11-20T01:31:12;98143.47;;;-4.61;100.00
35226;BME280;21813;49.686;21.766;2022-11-20T01:33:39;98140.97;;;-4.63;100.00
35226;BME280;21813;49.686;21.766;2022-11-20T01:36:07;98137.53;;;-4.62;100.00
35226;BME280;21813;49.686;21.766;2022-11-20T01:38:33;98140.97;;;-4.63;100.00
35226;BME280;21813;49.686;21.766;2022-11-20T01:41:03;98137.63;;;-4.65;100.00
35226;BME280;21813;49.686;21.766;2022-11-20T01:43:28;98138.47;;;-4.66;100.00
35226;BME280;21813;49.686;21.766;2022-11-20T01:48:49;98134.25;;;-4.67;100.00
35226;BME280;21813;49.686;21.766;2022-11-20T01:51:25;98133.44;;;-4.67;100.00
35226;BME280;21813;49.686;21.766;2022-11-20T01:53:54;98138.53;;;-4.67;100.00
35226;BME280;21813;49.686;21.766;2022-11-20T01:56:24;98125.88;;;-4.70;100.00
35226;BME280;21813;49.686;21.766;2022-11-20T01:58:54;98125.84;;;-4.69;100.00
35226;BME280;21813;49.686;21.766;2022-11-20T02:01:22;98111.38;;;-4.67;100.00
35226;BME280;21813;49.686;21.766;2022-11-20T02:03:49;98103.84;;;-4.70;100.00
35226;BME280;21813;49.686;21.766;2022-11-20T02:06:29;98097.03;;;-4.68;100.00
35226;BME280;21813;49.686;21.766;2022-11-20T02:08:57;98099.59;;;-4.69;100.00
35226;BME280;21813;49.686;21.766;2022-11-20T02:11:22;98101.31;;;-4.71;100.00
35226;BME280;21813;49.686;21.766;2022-11-20T02:13:48;98103.06;;;-4.72;100.00
35226;BME280;21813;49.686;21.766;2022-11-20T02:16:17;98109.75;;;-4.69;100.00
35226;BME280;21813;49.686;21.766;2022-11-20T02:18:45;98104.69;;;-4.69;100.00
35226;BME280;21813;49.686;21.766;2022-11-20T02:21:21;98109.69;;;-4.66;100.00
35226;BME280;21813;49.686;21.766;2022-11-20T02:26:28;98096.09;;;-4.65;100.00
35226;BME280;21813;49.686;21.766;2022-11-20T02:28:56;98112.91;;;-4.58;100.00
35226;BME280;21813;49.686;21.766;2022-11-20T02:31:22;98107.88;;;-4.61;100.00
35226;BME280;21813;49.686;21.766;2022-11-20T02:33:54;98093.47;;;-4.62;100.00
35226;BME280;21813;49.686;21.766;2022-11-20T02:36:21;98096.03;;;-4.62;100.00
35226;BME280;21813;49.686;21.766;2022-11-20T02:38:48;98097.69;;;-4.61;100.00
35226;BME280;21813;49.686;21.766;2022-11-20T02:41:15;98099.47;;;-4.63;100.00
35226;BME280;21813;49.686;21.766;2022-11-20T02:43:41;98102.06;;;-4.66;100.00
35226;BME280;21813;49.686;21.766;2022-11-20T02:46:08;98104.59;;;-4.66;100.00
35226;BME280;21813;49.686;21.766;2022-11-20T02:48:34;98098.72;;;-4.68;100.00
35226;BME280;21813;49.686;21.766;2022-11-20T02:51:00;98091.09;;;-4.68;100.00
35226;BME280;21813;49.686;21.766;2022-11-20T02:53:26;98090.25;;;-4.69;100.00
35226;BME280;21813;49.686;21.766;2022-11-20T02:55:52;98097.88;;;-4.67;100.00
35226;BME280;21813;49.686;21.766;2022-11-20T02:58:18;98091.09;;;-4.68;100.00
35226;BME280;21813;49.686;21.766;2022-11-20T03:00:44;98097.91;;;-4.70;100.00
35226;BME280;21813;49.686;21.766;2022-11-20T03:03:10;98092.84;;;-4.70;100.00
35226;BME280;21813;49.686;21.766;2022-11-20T03:05:37;98089.44;;;-4.69;100.00
35226;BME280;21813;49.686;21.766;2022-11-20T03:08:03;98091.09;;;-4.68;100.00
35226;BME280;21813;49.686;21.766;2022-11-20T03:10:30;98091.97;;;-4.69;100.00
35226;BME280;21813;49.686;21.766;2022-11-20T03:12:55;98085.31;;;-4.75;100.00
35226;BME280;21813;49.686;21.766;2022-11-20T03:15:22;98092.88;;;-4.72;100.00
35226;BME280;21813;49.686;21.766;2022-11-20T03:17:48;98083.59;;;-4.73;100.00
35226;BME280;21813;49.686;21.766;2022-11-20T03:20:19;98075.91;;;-4.71;100.00
35226;BME280;21813;49.686;21.766;2022-11-20T03:22:45;98080.22;;;-4.75;100.00
35226;BME280;21813;49.686;21.766;2022-11-20T03:25:12;98086.00;;;-4.68;100.00
35226;BME280;21813;49.686;21.766;2022-11-20T03:27:37;98078.41;;;-4.70;100.00
35226;BME280;21813;49.686;21.766;2022-11-20T03:30:04;98069.94;;;-4.70;100.00
35226;BME280;21813;49.686;21.766;2022-11-20T03:32:30;98070.81;;;-4.71;100.00
35226;BME280;21813;49.686;21.766;2022-11-20T03:34:57;98056.47;;;-4.72;100.00
35226;BME280;21813;49.686;21.766;2022-11-20T03:37:22;98056.50;;;-4.74;100.00
35226;BME280;21813;49.686;21.766;2022-11-20T03:39:50;98064.13;;;-4.75;100.00
35226;BME280;21813;49.686;21.766;2022-11-20T03:42:18;98042.19;;;-4.78;100.00
35226;BME280;21813;49.686;21.766;2022-11-20T03:45:04;98033.63;;;-4.75;100.00
35226;BME280;21813;49.686;21.766;2022-11-20T03:47:30;98037.06;;;-4.76;100.00
35226;BME280;21813;49.686;21.766;2022-11-20T03:49:56;98046.41;;;-4.77;100.00
35226;BME280;21813;49.686;21.766;2022-11-20T03:52:22;98046.41;;;-4.77;100.00
35226;BME280;21813;49.686;21.766;2022-11-20T03:54:48;98043.88;;;-4.78;100.00
35226;BME280;21813;49.686;21.766;2022-11-20T03:57:14;98034.66;;;-4.81;100.00
35226;BME280;21813;49.686;21.766;2022-11-20T03:59:40;98037.97;;;-4.79;100.00
35226;BME280;21813;49.686;21.766;2022-11-20T04:02:06;98030.31;;;-4.77;100.00
35226;BME280;21813;49.686;21.766;2022-11-20T04:04:33;98017.72;;;-4.82;100.00
35226;BME280;21813;49.686;21.766;2022-11-20T04:07:01;98028.72;;;-4.81;100.00
35226;BME280;21813;49.686;21.766;2022-11-20T04:09:28;98028.78;;;-4.84;100.00
35226;BME280;21813;49.686;21.766;2022-11-20T04:11:53;98036.47;;;-4.86;100.00
35226;BME280;21813;49.686;21.766;2022-11-20T04:14:20;98031.41;;;-4.87;100.00
35226;BME280;21813;49.686;21.766;2022-11-20T04:16:46;98032.13;;;-4.82;100.00
35226;BME280;21813;49.686;21.766;2022-11-20T04:19:23;98037.31;;;-4.85;100.00
35226;BME280;21813;49.686;21.766;2022-11-20T04:21:49;98035.69;;;-4.90;100.00
35226;BME280;21813;49.686;21.766;2022-11-20T04:24:19;98037.34;;;-4.88;100.00
35226;BME280;21813;49.686;21.766;2022-11-20T04:26:45;98052.69;;;-4.92;100.00
35226;BME280;21813;49.686;21.766;2022-11-20T04:29:21;98057.00;;;-4.95;100.00
35226;BME280;21813;49.686;21.766;2022-11-20T04:31:46;98073.06;;;-4.95;100.00
35226;BME280;21813;49.686;21.766;2022-11-20T04:34:13;98054.56;;;-5.00;100.00
35226;BME280;21813;49.686;21.766;2022-11-20T04:36:38;98051.25;;;-5.03;100.00
35226;BME280;21813;49.686;21.766;2022-11-20T04:39:05;98053.00;;;-5.05;100.00
35226;BME280;21813;49.686;21.766;2022-11-20T04:41:34;98052.19;;;-5.07;100.00
35226;BME280;21813;49.686;21.766;2022-11-20T04:44:02;98041.28;;;-5.11;100.00
35226;BME280;21813;49.686;21.766;2022-11-20T04:46:30;98052.28;;;-5.12;100.00
35226;BME280;21813;49.686;21.766;2022-11-20T04:49:04;98057.44;;;-5.13;100.00
35226;BME280;21813;49.686;21.766;2022-11-20T04:51:30;98060.84;;;-5.14;100.00
35226;BME280;21813;49.686;21.766;2022-11-20T04:53:57;98056.59;;;-5.14;100.00
35226;BME280;21813;49.686;21.766;2022-11-20T04:56:23;98054.91;;;-5.15;100.00
35226;BME280;21813;49.686;21.766;2022-11-20T04:58:49;98053.09;;;-5.10;100.00
35226;BME280;21813;49.686;21.766;2022-11-20T05:01:18;98052.13;;;-5.04;100.00
35226;BME280;21813;49.686;21.766;2022-11-20T05:03:45;98050.41;;;-5.04;100.00
35226;BME280;21813;49.686;21.766;2022-11-20T05:06:13;98058.00;;;-5.02;100.00
35226;BME280;21813;49.686;21.766;2022-11-20T05:08:41;98048.75;;;-5.05;100.00
35226;BME280;21813;49.686;21.766;2022-11-20T05:11:09;98055.34;;;-4.96;100.00
35226;BME280;21813;49.686;21.766;2022-11-20T05:13:39;98047.72;;;-4.98;100.00
35226;BME280;21813;49.686;21.766;2022-11-20T05:16:11;98044.19;;;-4.91;100.00
35226;BME280;21813;49.686;21.766;2022-11-20T05:18:39;98033.19;;;-4.91;100.00
35226;BME280;21813;49.686;21.766;2022-11-20T05:21:06;98043.19;;;-4.85;100.00
35226;BME280;21813;49.686;21.766;2022-11-20T05:23:33;98044.03;;;-4.84;100.00
35226;BME280;21813;49.686;21.766;2022-11-20T05:25:59;98027.91;;;-4.83;100.00
35226;BME280;21813;49.686;21.766;2022-11-20T05:28:27;98037.22;;;-4.82;100.00
35226;BME280;21813;49.686;21.766;2022-11-20T05:30:53;98039.66;;;-4.78;100.00
35226;BME280;21813;49.686;21.766;2022-11-20T05:33:20;98040.47;;;-4.77;100.00
35226;BME280;21813;49.686;21.766;2022-11-20T05:35:46;98038.72;;;-4.75;100.00
35226;BME280;21813;49.686;21.766;2022-11-20T05:38:15;98053.09;;;-4.73;100.00
35226;BME280;21813;49.686;21.766;2022-11-20T05:40:40;98040.31;;;-4.71;100.00
35226;BME280;21813;49.686;21.766;2022-11-20T05:43:08;98032.75;;;-4.73;100.00
35226;BME280;21813;49.686;21.766;2022-11-20T05:45:33;98046.19;;;-4.68;100.00
35226;BME280;21813;49.686;21.766;2022-11-20T05:48:01;98057.06;;;-4.63;100.00
35226;BME280;21813;49.686;21.766;2022-11-20T05:50:30;98057.88;;;-4.62;100.00
35226;BME280;21813;49.686;21.766;2022-11-20T05:53:00;98051.88;;;-4.58;100.00
35226;BME280;21813;49.686;21.766;2022-11-20T05:55:28;98054.34;;;-4.57;100.00
35226;BME280;21813;49.686;21.766;2022-11-20T05:57:55;98045.88;;;-4.56;100.00
35226;BME280;21813;49.686;21.766;2022-11-20T06:00:20;98043.22;;;-4.51;100.00
35226;BME280;21813;49.686;21.766;2022-11-20T06:02:47;98041.50;;;-4.51;100.00
35226;BME280;21813;49.686;21.766;2022-11-20T06:05:12;98031.22;;;-4.46;100.00
35226;BME280;21813;49.686;21.766;2022-11-20T06:07:39;98027.81;;;-4.45;100.00
35226;BME280;21813;49.686;21.766;2022-11-20T06:10:05;98031.13;;;-4.43;100.00
35226;BME280;21813;49.686;21.766;2022-11-20T06:12:32;98036.22;;;-4.43;100.00
35226;BME280;21813;49.686;21.766;2022-11-20T06:14:58;98030.25;;;-4.42;100.00
35226;BME280;21813;49.686;21.766;2022-11-20T06:17:27;98037.81;;;-4.39;100.00
35226;BME280;21813;49.686;21.766;2022-11-20T06:19:53;98035.22;;;-4.37;100.00
35226;BME280;21813;49.686;21.766;2022-11-20T06:22:20;98030.09;;;-4.36;100.00
35226;BME280;21813;49.686;21.766;2022-11-20T06:24:46;98037.66;;;-4.33;100.00
35226;BME280;21813;49.686;21.766;2022-11-20T06:27:13;98041.03;;;-4.32;100.00
35226;BME280;21813;49.686;21.766;2022-11-20T06:29:39;98031.66;;;-4.30;100.00
35226;BME280;21813;49.686;21.766;2022-11-20T06:32:07;98025.66;;;-4.28;100.00
35226;BME280;21813;49.686;21.766;2022-11-20T06:34:32;98044.16;;;-4.23;100.00
35226;BME280;21813;49.686;21.766;2022-11-20T06:36:59;98044.97;;;-4.21;100.00
35226;BME280;21813;49.686;21.766;2022-11-20T06:39:25;98032.25;;;-4.21;100.00
35226;BME280;21813;49.686;21.766;2022-11-20T06:41:52;98022.00;;;-4.18;100.00
35226;BME280;21813;49.686;21.766;2022-11-20T06:44:18;98032.81;;;-4.11;100.00
35226;BME280;21813;49.686;21.766;2022-11-20T06:46:44;98031.91;;;-4.09;100.00
35226;BME280;21813;49.686;21.766;2022-11-20T06:49:09;98027.59;;;-4.07;100.00
35226;BME280;21813;49.686;21.766;2022-11-20T06:51:36;98030.09;;;-4.04;100.00
35226;BME280;21813;49.686;21.766;2022-11-20T06:54:01;98013.16;;;-4.05;100.00
35226;BME280;21813;49.686;21.766;2022-11-20T06:56:28;98000.31;;;-4.02;100.00
35226;BME280;21813;49.686;21.766;2022-11-20T06:58:53;98000.31;;;-4.02;100.00
35226;BME280;21813;49.686;21.766;2022-11-20T07:01:21;98024.00;;;-3.98;100.00
35226;BME280;21813;49.686;21.766;2022-11-20T07:03:49;98024.81;;;-3.97;100.00
35226;BME280;21813;49.686;21.766;2022-11-20T07:06:16;98022.13;;;-3.93;100.00
35226;BME280;21813;49.686;21.766;2022-11-20T07:08:41;98020.50;;;-3.94;100.00
35226;BME280;21813;49.686;21.766;2022-11-20T07:11:11;98015.22;;;-3.88;100.00
35226;BME280;21813;49.686;21.766;2022-11-20T07:13:37;98012.53;;;-3.83;100.00
35226;BME280;21813;49.686;21.766;2022-11-20T07:16:08;98014.94;;;-3.79;100.00
35226;BME280;21813;49.686;21.766;2022-11-20T07:21:56;98025.66;;;-3.68;100.00
35226;BME280;21813;49.686;21.766;2022-11-20T07:24:22;98035.81;;;-3.66;100.00
35226;BME280;21813;49.686;21.766;2022-11-20T07:27:02;98012.91;;;-3.66;100.00
35226;BME280;21813;49.686;21.766;2022-11-20T07:29:50;98014.34;;;-3.58;100.00
35226;BME280;21813;49.686;21.766;2022-11-20T07:32:16;98008.31;;;-3.55;100.00
35226;BME280;21813;49.686;21.766;2022-11-20T07:34:42;97998.00;;;-3.50;100.00
35226;BME280;21813;49.686;21.766;2022-11-20T07:37:08;98002.09;;;-3.46;100.00
35226;BME280;21813;49.686;21.766;2022-11-20T07:39:40;98001.25;;;-3.45;100.00
35226;BME280;21813;49.686;21.766;2022-11-20T07:42:33;98003.56;;;-3.38;100.00
35226;BME280;21813;49.686;21.766;2022-11-20T07:45:18;98010.25;;;-3.34;100.00
35226;BME280;21813;49.686;21.766;2022-11-20T07:51:40;98012.53;;;-3.26;100.00
35226;BME280;21813;49.686;21.766;2022-11-20T07:54:07;97998.00;;;-3.23;100.00
35226;BME280;21813;49.686;21.766;2022-11-20T07:56:33;98000.34;;;-3.17;100.00
35226;BME280;21813;49.686;21.766;2022-11-20T07:59:35;98005.34;;;-3.14;100.00
35226;BME280;21813;49.686;21.766;2022-11-20T08:02:01;98000.25;;;-3.14;100.00
35226;BME280;21813;49.686;21.766;2022-11-20T08:04:27;98001.09;;;-3.13;100.00
35226;BME280;21813;49.686;21.766;2022-11-20T08:07:00;98007.03;;;-3.13;100.00
35226;BME280;21813;49.686;21.766;2022-11-20T08:25:54;98002.22;;;-2.69;100.00
35226;BME280;21813;49.686;21.766;2022-11-20T08:28:32;98002.59;;;-2.55;100.00
35226;BME280;21813;49.686;21.766;2022-11-20T08:31:38;98008.31;;;-2.48;100.00
35226;BME280;21813;49.686;21.766;2022-11-20T08:37:58;98002.28;;;-2.46;100.00
35226;BME280;21813;49.686;21.766;2022-11-20T08:41:08;97991.78;;;-2.37;100.00
35226;BME280;21813;49.686;21.766;2022-11-20T08:44:10;97992.81;;;-2.17;100.00
35226;BME280;21813;49.686;21.766;2022-11-20T08:46:38;97994.28;;;-2.12;100.00
35226;BME280;21813;49.686;21.766;2022-11-20T08:49:13;97991.38;;;-2.01;100.00
35226;BME280;21813;49.686;21.766;2022-11-20T08:56:01;98004.47;;;-1.87;100.00
35226;BME280;21813;49.686;21.766;2022-11-20T08:59:07;97997.47;;;-1.82;100.00
35226;BME280;21813;49.686;21.766;2022-11-20T09:01:42;97988.03;;;-1.80;100.00
35226;BME280;21813;49.686;21.766;2022-11-20T09:08:26;97996.81;;;-1.64;100.00
35226;BME280;21813;49.686;21.766;2022-11-20T09:14:11;97990.28;;;-1.49;100.00
35226;BME280;21813;49.686;21.766;2022-11-20T09:44:50;98000.28;;;-0.37;100.00
35226;BME280;21813;49.686;21.766;2022-11-20T10:04:11;97966.97;;;-0.17;100.00
35226;BME280;21813;49.686;21.766;2022-11-20T10:07:21;97972.88;;;-0.15;100.00
35226;BME280;21813;49.686;21.766;2022-11-20T10:10:15;97963.56;;;-0.18;100.00
35226;BME280;21813;49.686;21.766;2022-11-20T10:29:27;97961.03;;;0.01;100.00
35226;BME280;21813;49.686;21.766;2022-11-20T10:40:59;97953.44;;;-0.01;100.00
35226;BME280;21813;49.686;21.766;2022-11-20T10:44:37;97955.03;;;0.02;100.00
35226;BME280;21813;49.686;21.766;2022-11-20T10:48:10;97945.13;;;0.13;100.00
35226;BME280;21813;49.686;21.766;2022-11-20T10:51:37;97920.06;;;0.20;100.00
35226;BME280;21813;49.686;21.766;2022-11-20T11:02:15;97914.41;;;0.13;100.00
35226;BME280;21813;49.686;21.766;2022-11-20T11:08:43;97905.94;;;0.11;100.00
35226;BME280;21813;49.686;21.766;2022-11-20T11:15:01;97914.50;;;0.10;100.00
35226;BME280;21813;49.686;21.766;2022-11-20T11:52:25;97879.81;;;0.22;100.00
35226;BME280;21813;49.686;21.766;2022-11-20T11:56:43;97888.19;;;0.25;100.00
35226;BME280;21813;49.686;21.766;2022-11-20T12:06:19;97897.88;;;0.37;100.00
35226;BME280;21813;49.686;21.766;2022-11-20T12:09:37;97890.19;;;0.37;100.00
35226;BME280;21813;49.686;21.766;2022-11-20T12:12:30;97892.31;;;0.47;100.00
35226;BME280;21813;49.686;21.766;2022-11-20T12:21:45;97882.72;;;0.69;100.00
35226;BME280;21813;49.686;21.766;2022-11-20T14:39:20;97861.06;;;0.03;100.00
35226;BME280;21813;49.686;21.766;2022-11-20T14:41:51;97858.72;;;-0.02;100.00
35226;BME280;21813;49.686;21.766;2022-11-20T14:44:25;97866.47;;;-0.04;100.00
35226;BME280;21813;49.686;21.766;2022-11-20T14:46:59;97875.19;;;-0.08;100.00
35226;BME280;21813;49.686;21.766;2022-11-20T14:52:56;97857.75;;;-0.18;100.00
35226;BME280;21813;49.686;21.766;2022-11-20T15:14:44;97856.53;;;-0.28;100.00
35226;BME280;21813;49.686;21.766;2022-11-20T15:17:33;97844.47;;;-0.26;100.00
35226;BME280;21813;49.686;21.766;2022-11-20T15:24:12;97820.69;;;-0.28;100.00
35226;BME280;21813;49.686;21.766;2022-11-20T15:27:03;97836.09;;;-0.30;100.00
35226;BME280;21813;49.686;21.766;2022-11-20T15:29:33;97848.06;;;-0.30;100.00
35226;BME280;21813;49.686;21.766;2022-11-20T15:34:40;97852.50;;;-0.34;100.00
35226;BME280;21813;49.686;21.766;2022-11-20T16:09:44;97818.25;;;-0.89;100.00
35226;BME280;21813;49.686;21.766;2022-11-20T16:14:52;97820.19;;;-0.94;100.00
35226;BME280;21813;49.686;21.766;2022-11-20T16:22:02;97830.91;;;-1.06;100.00
35226;BME280;21813;49.686;21.766;2022-11-20T16:27:03;97824.41;;;-1.13;100.00
35226;BME280;21813;49.686;21.766;2022-11-20T16:29:45;97816.78;;;-1.15;100.00
35226;BME280;21813;49.686;21.766;2022-11-20T16:39:12;97824.78;;;-1.22;100.00
35226;BME280;21813;49.686;21.766;2022-11-20T16:42:03;97829.25;;;-1.27;100.00
35226;BME280;21813;49.686;21.766;2022-11-20T16:49:17;97828.84;;;-1.39;100.00
35226;BME280;21813;49.686;21.766;2022-11-20T16:52:12;97834.78;;;-1.38;100.00
35226;BME280;21813;49.686;21.766;2022-11-20T16:55:15;97829.13;;;-1.45;100.00
35226;BME280;21813;49.686;21.766;2022-11-20T16:58:08;97825.91;;;-1.50;100.00
35226;BME280;21813;49.686;21.766;2022-11-20T17:00:41;97841.13;;;-1.47;100.00
35226;BME280;21813;49.686;21.766;2022-11-20T17:03:07;97843.03;;;-1.52;100.00
35226;BME280;21813;49.686;21.766;2022-11-20T17:05:34;97836.38;;;-1.56;100.00
35226;BME280;21813;49.686;21.766;2022-11-20T17:22:17;97852.19;;;-1.68;100.00
35226;BME280;21813;49.686;21.766;2022-11-20T17:24:44;97847.19;;;-1.71;100.00
35226;BME280;21813;49.686;21.766;2022-11-20T17:27:13;97850.66;;;-1.72;100.00
35226;BME280;21813;49.686;21.766;2022-11-20T17:33:54;97834.06;;;-1.84;100.00
35226;BME280;21813;49.686;21.766;2022-11-20T17:36:34;97813.81;;;-1.88;100.00
35226;BME280;21813;49.686;21.766;2022-11-20T17:39:06;97810.53;;;-1.90;100.00
35226;BME280;21813;49.686;21.766;2022-11-20T17:41:44;97792.88;;;-1.96;100.00
35226;BME280;21813;49.686;21.766;2022-11-20T17:44:13;97779.28;;;-1.97;100.00
35226;BME280;21813;49.686;21.766;2022-11-20T17:46:45;97757.91;;;-1.94;100.00
35226;BME280;21813;49.686;21.766;2022-11-20T17:49:11;97762.22;;;-1.96;100.00
35226;BME280;21813;49.686;21.766;2022-11-20T17:51:37;97770.03;;;-1.99;100.00
35226;BME280;21813;49.686;21.766;2022-11-20T17:58:07;97781.00;;;-1.97;100.00
35226;BME280;21813;49.686;21.766;2022-11-20T18:01:17;97790.56;;;-2.02;100.00
35226;BME280;21813;49.686;21.766;2022-11-20T18:03:46;97793.28;;;-2.07;100.00
35226;BME280;21813;49.686;21.766;2022-11-20T18:06:41;97791.75;;;-2.11;100.00
35226;BME280;21813;49.686;21.766;2022-11-20T18:09:08;97792.03;;;-2.18;100.00
35226;BME280;21813;49.686;21.766;2022-11-20T18:11:36;97787.00;;;-2.20;100.00
35226;BME280;21813;49.686;21.766;2022-11-20T18:14:14;97791.91;;;-2.15;100.00
35226;BME280;21813;49.686;21.766;2022-11-20T18:17:05;97783.44;;;-2.16;100.00
35226;BME280;21813;49.686;21.766;2022-11-20T18:19:37;97784.38;;;-2.18;100.00
35226;BME280;21813;49.686;21.766;2022-11-20T18:22:13;97787.69;;;-2.16;100.00
35226;BME280;21813;49.686;21.766;2022-11-20T18:24:55;97791.03;;;-2.14;100.00
35226;BME280;21813;49.686;21.766;2022-11-20T18:27:47;97794.34;;;-2.12;100.00
35226;BME280;21813;49.686;21.766;2022-11-20T18:30:27;97798.56;;;-2.11;100.00
35226;BME280;21813;49.686;21.766;2022-11-20T18:32:52;97794.34;;;-2.12;100.00
35226;BME280;21813;49.686;21.766;2022-11-20T18:35:38;97794.13;;;-2.06;100.00
35226;BME280;21813;49.686;21.766;2022-11-20T18:38:13;97798.16;;;-2.01;100.00
35226;BME280;21813;49.686;21.766;2022-11-20T18:40:42;97776.78;;;-1.98;100.00
35226;BME280;21813;49.686;21.766;2022-11-20T18:43:12;97775.13;;;-1.99;100.00
35226;BME280;21813;49.686;21.766;2022-11-20T18:46:49;97785.09;;;-1.93;100.00
35226;BME280;21813;49.686;21.766;2022-11-20T18:49:16;97788.41;;;-1.91;100.00
35226;BME280;21813;49.686;21.766;2022-11-20T18:55:40;97781.50;;;-1.89;100.00
35226;BME280;21813;49.686;21.766;2022-11-20T18:58:02;97788.00;;;-1.81;100.00
35226;BME280;21813;49.686;21.766;2022-11-20T19:04:06;97772.53;;;-1.77;100.00
35226;BME280;21813;49.686;21.766;2022-11-20T19:07:03;97773.31;;;-1.75;100.00
35226;BME280;21813;49.686;21.766;2022-11-20T19:09:48;97775.81;;;-1.74;100.00
35226;BME280;21813;49.686;21.766;2022-11-20T19:12:48;97769.16;;;-1.78;100.00
35226;BME280;21813;49.686;21.766;2022-11-20T19:22:37;97782.16;;;-1.84;100.00
35226;BME280;21813;49.686;21.766;2022-11-20T19:56:25;97816.34;;;-2.08;100.00
35226;BME280;21813;49.686;21.766;2022-11-20T20:30:34;97781.03;;;-2.42;100.00
35226;BME280;21813;49.686;21.766;2022-11-20T20:33:03;97777.97;;;-2.50;100.00
35226;BME280;21813;49.686;21.766;2022-11-20T20:35:55;97777.16;;;-2.52;100.00
35226;BME280;21813;49.686;21.766;2022-11-20T20:39:10;97793.44;;;-2.55;100.00
35226;BME280;21813;49.686;21.766;2022-11-20T20:42:10;97802.13;;;-2.60;100.00
35226;BME280;21813;49.686;21.766;2022-11-20T21:16:57;97763.84;;;-2.82;100.00
35226;BME280;21813;49.686;21.766;2022-11-20T21:33:53;97722.53;;;-2.69;100.00
35226;BME280;21813;49.686;21.766;2022-11-20T21:36:48;97727.34;;;-2.61;100.00
35226;BME280;21813;49.686;21.766;2022-11-20T21:39:32;97729.88;;;-2.61;100.00
35226;BME280;21813;49.686;21.766;2022-11-20T21:42:01;97745.97;;;-2.59;100.00
35226;BME280;21813;49.686;21.766;2022-11-20T22:12:16;97743.28;;;-2.56;100.00
35226;BME280;21813;49.686;21.766;2022-11-20T22:18:17;97745.81;;;-2.54;100.00
35226;BME280;21813;49.686;21.766;2022-11-20T22:57:43;97749.09;;;-2.74;100.00
35226;BME280;21813;49.686;21.766;2022-11-20T23:00:18;97741.53;;;-2.77;100.00
